Time;durP1;ratioP1;P1;durP2;ratioP2;P2;SDS_P1;SDS_P2;PMS_P1;PMS_P2;Temp;Humidity;BMP_temperature;BMP_pressure;BME280_temperature;BME280_humidity;BME280_pressure;Samples;Min_cycle;Max_cycle;Signal;HPM_P1;HPM_P2
2022/06/02 00:00:39;;;;;;;3.73;1.30;;;15.50;92.40;;;;;;5069605;28;20483;-66
2022/06/02 00:03:29;;;;;;;3.03;1.60;;;15.50;92.70;;;;;;5070914;28;20491;-66
2022/06/02 00:06:10;;;;;;;2.80;1.63;;;15.50;92.80;;;;;;5070316;28;20505;-66
2022/06/02 00:08:51;;;;;;;2.67;1.60;;;15.40;93.40;;;;;;5070361;28;20447;-65
2022/06/02 00:11:33;;;;;;;2.90;1.90;;;15.30;92.80;;;;;;5069753;28;20473;-66
2022/06/02 00:14:11;;;;;;;2.30;1.70;;;15.30;92.80;;;;;;5070488;28;20447;-66
2022/06/02 00:16:49;;;;;;;2.30;1.40;;;15.30;92.80;;;;;;5070363;28;20455;-66
2022/06/02 00:19:33;;;;;;;2.60;1.50;;;15.30;92.60;;;;;;5070669;28;20435;-65
2022/06/02 00:22:08;;;;;;;2.00;1.20;;;15.30;92.70;;;;;;5069491;28;20518;-66
2022/06/02 00:24:44;;;;;;;2.87;1.70;;;15.20;92.60;;;;;;5070045;28;20451;-66
2022/06/02 00:27:21;;;;;;;2.40;1.33;;;15.30;92.60;;;;;;5070108;28;20457;-66
2022/06/02 00:29:58;;;;;;;3.27;1.50;;;15.30;92.80;;;;;;5069773;28;20439;-65
2022/06/02 00:32:34;;;;;;;2.17;1.40;;;15.20;92.80;;;;;;5070371;28;20534;-66
2022/06/02 00:35:13;;;;;;;2.10;1.40;;;15.20;92.90;;;;;;5069797;28;20450;-66
2022/06/02 00:37:47;;;;;;;4.40;1.60;;;15.10;93.00;;;;;;5070126;28;20447;-66
2022/06/02 00:40:16;;;;;;;3.73;1.70;;;15.10;93.10;;;;;;5069740;28;20474;-64
2022/06/02 00:42:54;;;;;;;2.47;1.57;;;15.10;93.40;;;;;;5070201;28;20881;-65
2022/06/02 00:45:21;;;;;;;3.13;1.70;;;15.10;93.00;;;;;;5070277;28;20528;-64
2022/06/02 00:47:53;;;;;;;3.03;1.70;;;15.00;93.40;;;;;;5070337;28;20538;-65
2022/06/02 00:50:45;;;;;;;2.60;1.80;;;15.00;93.20;;;;;;5069170;28;20463;-65
2022/06/02 00:53:24;;;;;;;2.30;1.70;;;15.00;93.10;;;;;;5061260;28;20443;-66
2022/06/02 00:59:00;;;;;;;2.30;1.50;;;14.90;93.50;;;;;;5069777;28;20431;-66
2022/06/02 01:01:30;;;;;;;3.27;1.57;;;14.90;93.50;;;;;;5068921;28;20532;-66
2022/06/02 01:03:59;;;;;;;2.10;1.60;;;14.80;93.70;;;;;;5069757;28;20565;-66
2022/06/02 01:06:41;;;;;;;3.20;1.43;;;14.80;93.70;;;;;;5069446;28;20455;-65
2022/06/02 01:09:22;;;;;;;3.60;1.70;;;14.80;93.90;;;;;;5069559;28;20447;-66
2022/06/02 01:12:02;;;;;;;2.60;1.73;;;14.80;93.80;;;;;;5068751;28;20470;-65
2022/06/02 01:14:45;;;;;;;5.23;1.50;;;14.80;94.00;;;;;;5069140;28;20446;-65
2022/06/02 01:17:19;;;;;;;4.03;2.73;;;14.70;94.10;;;;;;5069577;28;20823;-66
2022/06/02 01:20:09;;;;;;;3.20;1.77;;;14.70;94.10;;;;;;5068563;28;20545;-65
2022/06/02 01:23:26;;;;;;;3.83;1.57;;;14.70;94.20;;;;;;5069697;28;20479;-65
2022/06/02 01:26:13;;;;;;;2.43;1.50;;;14.60;94.40;;;;;;5069216;28;20443;-66
2022/06/02 01:28:51;;;;;;;4.73;1.80;;;14.60;94.70;;;;;;5069559;28;20529;-66
2022/06/02 01:31:28;;;;;;;3.90;1.70;;;14.50;94.80;;;;;;5068702;28;20467;-66
2022/06/02 01:34:04;;;;;;;2.87;1.57;;;14.50;94.80;;;;;;5069472;28;20482;-66
2022/06/02 01:36:47;;;;;;;2.20;1.50;;;14.50;95.00;;;;;;5069238;28;20448;-66
2022/06/02 01:39:27;;;;;;;4.87;2.23;;;14.50;95.10;;;;;;5069543;28;20443;-65
2022/06/02 01:42:04;;;;;;;3.13;1.70;;;14.40;95.10;;;;;;5068338;28;20491;-65
2022/06/02 01:44:39;;;;;;;3.90;1.80;;;14.40;95.30;;;;;;5068864;28;20459;-66
2022/06/02 01:47:14;;;;;;;3.03;1.80;;;14.40;95.40;;;;;;5069190;28;21105;-66
2022/06/02 01:49:54;;;;;;;3.27;1.80;;;14.40;95.50;;;;;;5069241;28;20456;-65
2022/06/02 01:52:35;;;;;;;3.40;2.00;;;14.40;95.80;;;;;;5069097;28;20818;-65
2022/06/02 01:55:16;;;;;;;4.10;1.90;;;14.30;95.90;;;;;;5068880;28;20442;-68
2022/06/02 01:57:56;;;;;;;2.57;1.57;;;14.30;96.00;;;;;;5070368;28;20447;-65
2022/06/02 02:00:26;;;;;;;2.40;1.60;;;14.20;96.20;;;;;;5068353;28;20462;-64
2022/06/02 02:03:05;;;;;;;3.83;1.77;;;14.20;96.50;;;;;;5069149;28;20592;-68
2022/06/02 02:05:50;;;;;;;3.10;1.90;;;14.10;96.60;;;;;;5069079;28;20446;-66
2022/06/02 02:08:35;;;;;;;3.00;1.67;;;14.10;96.80;;;;;;5069223;28;20523;-65
2022/06/02 02:11:16;;;;;;;3.80;2.27;;;14.10;97.00;;;;;;5068690;28;20498;-66
2022/06/02 02:13:56;;;;;;;2.83;1.70;;;14.10;97.20;;;;;;5068804;28;20806;-66
2022/06/02 02:16:36;;;;;;;3.03;1.90;;;14.10;97.40;;;;;;5068825;28;20446;-66
2022/06/02 02:19:15;;;;;;;2.60;2.03;;;14.10;97.50;;;;;;5068969;28;20449;-65
2022/06/02 02:21:52;;;;;;;5.70;2.13;;;14.10;97.60;;;;;;5068070;28;20571;-66
2022/06/02 02:24:32;;;;;;;2.70;1.90;;;14.10;98.00;;;;;;5068722;28;20441;-64
2022/06/02 02:27:05;;;;;;;3.10;1.60;;;14.10;98.20;;;;;;5069067;28;20439;-65
2022/06/02 02:29:42;;;;;;;2.77;1.90;;;14.00;99.90;;;;;;5068937;28;20469;-66
2022/06/02 02:32:19;;;;;;;2.43;1.93;;;14.00;99.80;;;;;;5070370;28;20500;-66
2022/06/02 02:34:56;;;;;;;2.37;1.80;;;14.00;99.80;;;;;;5072232;28;20453;-67
2022/06/02 02:37:30;;;;;;;3.00;2.07;;;13.90;99.90;;;;;;5072552;28;20445;-65
2022/06/02 02:40:03;;;;;;;2.30;1.80;;;13.90;99.90;;;;;;5071583;28;20447;-66
2022/06/02 02:42:35;;;;;;;2.30;1.80;;;13.80;99.60;;;;;;5072001;28;21014;-66
2022/06/02 02:45:15;;;;;;;2.97;1.73;;;13.80;99.70;;;;;;5071673;28;20493;-64
2022/06/02 02:47:48;;;;;;;3.30;1.80;;;13.80;99.80;;;;;;5072222;28;20447;-66
2022/06/02 02:50:21;;;;;;;5.03;2.40;;;13.80;99.90;;;;;;5071366;28;20477;-66
2022/06/02 02:52:55;;;;;;;2.90;1.40;;;13.70;99.90;;;;;;5072171;28;20454;-66
2022/06/02 02:55:27;;;;;;;2.53;2.10;;;13.70;99.90;;;;;;5071606;28;20443;-67
2022/06/02 02:58:02;;;;;;;2.70;1.90;;;13.70;99.90;;;;;;5072227;28;20446;-67
2022/06/02 03:00:34;;;;;;;2.23;1.40;;;13.70;99.90;;;;;;5070998;28;20478;-66
2022/06/02 03:03:09;;;;;;;4.80;2.20;;;13.60;99.90;;;;;;5072052;28;20482;-66
2022/06/02 03:05:59;;;;;;;2.50;1.67;;;13.60;99.90;;;;;;5071528;28;20495;-66
2022/06/02 03:08:35;;;;;;;2.87;2.17;;;13.50;99.90;;;;;;5072142;28;20455;-66
2022/06/02 03:11:23;;;;;;;4.33;1.80;;;13.50;99.90;;;;;;5070854;28;20532;-66
2022/06/02 03:13:59;;;;;;;2.57;1.80;;;13.50;99.90;;;;;;5072077;28;20458;-66
2022/06/02 03:16:27;;;;;;;6.10;2.30;;;13.50;99.90;;;;;;5071834;28;20833;-66
2022/06/02 03:19:05;;;;;;;2.93;2.00;;;13.50;99.90;;;;;;5072044;28;20477;-66
2022/06/02 03:21:37;;;;;;;3.07;2.13;;;13.50;99.90;;;;;;5071122;28;20463;-66
2022/06/02 03:24:43;;;;;;;3.60;1.97;;;13.50;99.90;;;;;;5071959;28;20482;-66
2022/06/02 03:27:21;;;;;;;3.20;2.40;;;13.50;99.90;;;;;;5071869;28;20447;-65
2022/06/02 03:29:57;;;;;;;5.93;2.47;;;13.50;99.90;;;;;;5070758;28;20939;-66
2022/06/02 03:32:46;;;;;;;4.70;2.70;;;13.50;99.90;;;;;;5071311;28;20447;-66
2022/06/02 03:35:25;;;;;;;2.47;1.90;;;13.50;99.90;;;;;;5068071;28;20894;-64
2022/06/02 03:38:05;;;;;;;2.87;1.80;;;13.50;99.90;;;;;;5071181;28;20442;-66
2022/06/02 03:40:47;;;;;;;4.40;2.30;;;13.50;99.90;;;;;;5070366;28;20481;-67
2022/06/02 03:43:19;;;;;;;3.27;2.40;;;13.60;99.90;;;;;;5070403;28;20479;-66
2022/06/02 03:45:59;;;;;;;3.50;1.90;;;13.50;99.90;;;;;;5071048;28;20478;-66
2022/06/02 03:48:48;;;;;;;5.00;2.10;;;13.50;99.90;;;;;;5071136;28;20451;-66
2022/06/02 03:51:25;;;;;;;5.00;2.73;;;13.60;99.90;;;;;;5070206;28;20481;-66
2022/06/02 03:54:28;;;;;;;2.77;2.30;;;13.60;99.90;;;;;;5070828;28;20959;-66
2022/06/02 03:57:11;;;;;;;4.73;2.33;;;13.60;99.90;;;;;;5071024;28;20496;-67
2022/06/02 04:00:08;;;;;;;3.77;2.07;;;13.60;99.90;;;;;;5070596;28;20457;-66
2022/06/02 04:02:42;;;;;;;3.90;2.57;;;13.60;99.90;;;;;;5070924;28;20855;-67
2022/06/02 04:05:20;;;;;;;2.87;2.03;;;13.70;99.90;;;;;;5070370;28;20443;-67
2022/06/02 04:07:56;;;;;;;4.63;2.17;;;13.70;99.90;;;;;;5070785;28;20529;-67
2022/06/02 04:10:34;;;;;;;3.50;2.50;;;13.70;99.90;;;;;;5068639;28;20462;-67
2022/06/02 04:13:37;;;;;;;2.90;2.13;;;13.60;99.90;;;;;;5070817;28;20435;-67
2022/06/02 04:16:39;;;;;;;3.67;2.33;;;13.50;99.90;;;;;;5070025;28;20926;-67
2022/06/02 04:22:20;;;;;;;3.90;2.20;;;13.30;99.90;;;;;;5069565;28;20430;-67
2022/06/02 04:25:00;;;;;;;3.93;2.50;;;13.30;99.90;;;;;;5069669;28;20529;-67
2022/06/02 04:27:36;;;;;;;2.60;2.03;;;13.30;99.90;;;;;;5069934;28;20567;-66
2022/06/02 04:30:16;;;;;;;3.40;2.70;;;13.20;99.90;;;;;;5069001;28;20555;-66
2022/06/02 04:32:50;;;;;;;5.80;2.30;;;13.30;99.90;;;;;;5069940;28;20940;-67
2022/06/02 04:35:33;;;;;;;3.20;2.00;;;13.30;99.90;;;;;;5069501;28;20928;-67
2022/06/02 04:38:11;;;;;;;3.60;2.20;;;13.30;99.90;;;;;;5070169;28;20893;-66
2022/06/02 04:40:50;;;;;;;3.83;2.37;;;13.40;99.90;;;;;;5065471;28;20475;-66
2022/06/02 04:43:28;;;;;;;2.67;2.30;;;13.50;99.90;;;;;;5069871;28;20479;-66
2022/06/02 04:46:07;;;;;;;4.13;2.20;;;13.60;99.90;;;;;;5069781;28;20450;-66
2022/06/02 04:48:42;;;;;;;4.60;2.23;;;13.70;99.90;;;;;;5069519;28;20458;-67
2022/06/02 04:51:18;;;;;;;3.00;2.50;;;13.70;99.90;;;;;;5068759;28;20556;-66
2022/06/02 04:53:52;;;;;;;5.73;2.50;;;13.70;99.90;;;;;;5069906;28;20443;-67
2022/06/02 04:56:26;;;;;;;4.10;2.13;;;13.70;99.90;;;;;;5068276;28;20435;-65
2022/06/02 04:58:58;;;;;;;6.83;2.60;;;13.70;99.90;;;;;;5070120;28;20439;-66
2022/06/02 05:01:38;;;;;;;9.00;2.90;;;13.80;99.90;;;;;;5068846;28;20485;-67
2022/06/02 05:04:19;;;;;;;4.83;2.40;;;14.00;99.90;;;;;;5069296;28;20482;-65
2022/06/02 05:06:50;;;;;;;5.63;2.80;;;14.20;99.90;;;;;;5064841;28;20447;-68
2022/06/02 05:09:23;;;;;;;5.70;2.37;;;14.30;99.90;;;;;;5073790;28;20442;-66
2022/06/02 05:12:09;;;;;;;3.20;2.37;;;14.40;99.90;;;;;;5088668;28;20569;-68
2022/06/02 05:14:43;;;;;;;2.93;2.07;;;14.60;99.90;;;;;;5087911;28;20434;-67
2022/06/02 05:17:37;;;;;;;3.50;2.47;;;14.60;99.90;;;;;;5088922;28;20965;-68
2022/06/02 05:20:30;;;;;;;3.43;2.07;;;14.70;99.90;;;;;;5088197;28;20462;-67
2022/06/02 05:23:31;;;;;;;3.60;2.20;;;14.80;99.90;;;;;;5084129;28;20483;-67
2022/06/02 05:26:32;;;;;;;4.10;2.90;;;15.00;99.90;;;;;;5064788;28;20840;-68
2022/06/02 05:29:32;;;;;;;5.90;2.50;;;15.20;99.90;;;;;;5067960;28;20454;-68
2022/06/02 05:32:25;;;;;;;4.17;2.47;;;15.50;99.90;;;;;;5064687;28;20815;-67
2022/06/02 05:35:34;;;;;;;3.63;2.57;;;15.60;99.90;;;;;;5067665;28;20438;-67
2022/06/02 05:38:22;;;;;;;3.90;2.60;;;15.60;99.90;;;;;;5067755;28;20442;-66
2022/06/02 05:41:00;;;;;;;3.50;2.23;;;15.80;99.90;;;;;;5065228;28;20463;-65
2022/06/02 05:43:37;;;;;;;4.80;2.40;;;16.00;99.90;;;;;;5069508;28;20482;-67
2022/06/02 05:46:14;;;;;;;5.40;2.60;;;16.10;99.10;;;;;;5068985;28;20525;-66
2022/06/02 05:48:54;;;;;;;4.63;2.50;;;15.90;99.00;;;;;;5069414;28;20466;-67
2022/06/02 05:51:29;;;;;;;2.80;2.30;;;15.70;99.70;;;;;;5066575;28;20471;-66
2022/06/02 05:54:10;;;;;;;3.90;2.43;;;15.70;99.90;;;;;;5069126;28;20438;-66
2022/06/02 05:56:50;;;;;;;2.57;2.07;;;15.70;99.30;;;;;;5069233;28;20470;-68
2022/06/02 05:59:41;;;;;;;2.57;1.93;;;15.80;99.90;;;;;;5069723;28;20946;-67
2022/06/02 06:02:47;;;;;;;3.80;2.10;;;15.90;98.90;;;;;;5068680;28;20600;-67
2022/06/02 06:05:18;;;;;;;6.07;2.17;;;15.80;99.20;;;;;;5047953;28;20447;-67
2022/06/02 06:08:14;;;;;;;4.93;2.43;;;15.80;99.60;;;;;;5072761;28;20462;-67
2022/06/02 06:10:49;;;;;;;3.67;2.47;;;15.80;99.50;;;;;;5051571;28;20469;-66
2022/06/02 06:13:38;;;;;;;3.63;2.20;;;15.80;98.40;;;;;;5073276;28;20514;-67
2022/06/02 06:16:13;;;;;;;3.90;2.43;;;15.80;99.60;;;;;;5070905;28;20450;-64
2022/06/02 06:18:52;;;;;;;3.67;2.20;;;15.80;98.50;;;;;;5073186;28;20450;-67
2022/06/02 06:21:34;;;;;;;3.30;2.60;;;15.70;98.20;;;;;;5072077;28;20461;-67
2022/06/02 06:24:25;;;;;;;3.60;2.50;;;15.80;98.10;;;;;;5072819;28;20478;-66
2022/06/02 06:27:02;;;;;;;6.07;2.60;;;15.90;99.50;;;;;;5072754;28;20447;-66
2022/06/02 06:29:38;;;;;;;5.30;2.60;;;16.00;97.30;;;;;;5072923;28;20435;-66
2022/06/02 06:32:18;;;;;;;3.70;2.40;;;16.00;96.70;;;;;;5071934;28;20473;-66
2022/06/02 06:34:51;;;;;;;4.20;2.63;;;16.10;96.70;;;;;;5072316;28;20780;-65
2022/06/02 06:37:43;;;;;;;4.97;2.83;;;16.10;97.00;;;;;;5072628;28;20443;-65
2022/06/02 06:40:21;;;;;;;4.60;2.90;;;16.10;97.00;;;;;;5048594;28;20459;-65
2022/06/02 06:43:03;;;;;;;3.70;2.40;;;16.10;97.40;;;;;;5072374;28;20434;-66
2022/06/02 06:45:37;;;;;;;4.17;2.80;;;16.20;97.80;;;;;;5072286;28;20795;-66
2022/06/02 06:48:14;;;;;;;5.23;2.80;;;16.30;98.60;;;;;;5072837;28;20451;-66
2022/06/02 06:50:50;;;;;;;3.60;2.77;;;16.40;98.90;;;;;;5072145;28;20748;-66
2022/06/02 06:53:30;;;;;;;4.30;2.70;;;16.60;97.60;;;;;;5073327;28;20446;-66
2022/06/02 06:56:06;;;;;;;9.77;4.37;;;16.60;97.60;;;;;;5072837;28;20844;-66
2022/06/02 06:58:49;;;;;;;3.70;3.03;;;16.70;96.80;;;;;;5072540;28;20845;-66
2022/06/02 07:01:24;;;;;;;3.47;3.07;;;16.70;97.00;;;;;;5071078;28;20469;-66
2022/06/02 07:03:56;;;;;;;2.70;2.37;;;16.70;95.90;;;;;;5072095;28;20478;-66
2022/06/02 07:06:33;;;;;;;4.67;2.30;;;16.70;97.20;;;;;;5071959;28;20824;-67
2022/06/02 07:09:10;;;;;;;5.03;2.93;;;16.80;97.10;;;;;;5072184;28;20447;-67
2022/06/02 07:14:39;;;;;;;3.33;2.40;;;17.00;96.20;;;;;;5071810;28;20442;-66
2022/06/02 07:17:13;;;;;;;4.33;2.90;;;17.10;96.20;;;;;;5072203;28;20453;-66
2022/06/02 07:19:47;;;;;;;3.10;2.60;;;17.30;96.60;;;;;;5070881;28;20454;-65
2022/06/02 07:22:22;;;;;;;3.10;2.33;;;17.30;95.70;;;;;;5071644;28;20458;-66
2022/06/02 07:24:58;;;;;;;3.13;2.83;;;17.50;96.30;;;;;;5071456;28;20485;-66
2022/06/02 07:27:34;;;;;;;4.23;2.70;;;17.50;95.10;;;;;;5071978;28;20439;-66
2022/06/02 07:30:24;;;;;;;6.60;2.63;;;17.50;94.80;;;;;;5070783;28;20451;-66
2022/06/02 07:33:12;;;;;;;4.03;2.43;;;17.50;94.60;;;;;;5071551;28;20451;-66
2022/06/02 07:36:22;;;;;;;3.60;2.20;;;17.60;95.20;;;;;;5071246;28;20458;-65
2022/06/02 07:39:05;;;;;;;3.40;2.50;;;17.70;95.10;;;;;;5071406;28;20453;-65
2022/06/02 07:41:56;;;;;;;5.10;2.50;;;17.70;94.80;;;;;;5070445;28;20489;-66
2022/06/02 07:44:51;;;;;;;5.87;2.90;;;17.80;95.60;;;;;;5071114;28;20485;-66
2022/06/02 07:47:50;;;;;;;2.97;2.20;;;17.90;94.90;;;;;;5071301;28;20527;-67
2022/06/02 07:50:20;;;;;;;3.60;2.60;;;18.00;94.70;;;;;;5070253;28;21002;-65
2022/06/02 07:52:59;;;;;;;3.50;2.40;;;18.10;95.50;;;;;;5071355;28;20458;-66
2022/06/02 07:55:33;;;;;;;5.80;2.57;;;18.20;93.80;;;;;;5066389;28;20831;-65
2022/06/02 07:58:29;;;;;;;3.70;2.17;;;18.40;93.90;;;;;;5060487;28;20454;-67
2022/06/02 08:01:01;;;;;;;2.90;2.30;;;18.40;92.40;;;;;;5060243;28;20478;-67
2022/06/02 08:03:47;;;;;;;6.22;2.70;;;18.50;93.50;;;;;;5068681;28;21062;-66
2022/06/02 08:06:19;;;;;;;4.57;2.37;;;18.40;93.70;;;;;;5070579;28;20189;-66
2022/06/02 08:08:56;;;;;;;3.07;2.53;;;18.20;93.30;;;;;;5070971;28;20454;-66
2022/06/02 08:11:32;;;;;;;2.90;2.47;;;18.10;92.60;;;;;;5070016;28;20462;-66
2022/06/02 08:14:09;;;;;;;3.37;2.20;;;18.10;92.40;;;;;;5066815;28;20445;-66
2022/06/02 08:16:48;;;;;;;3.57;2.27;;;18.10;94.60;;;;;;5063593;28;20445;-66
2022/06/02 08:19:23;;;;;;;2.63;2.40;;;18.30;94.50;;;;;;5069174;28;20939;-68
2022/06/02 08:21:53;;;;;;;2.63;2.07;;;18.50;92.80;;;;;;5068772;28;20881;-66
2022/06/02 08:24:34;;;;;;;4.40;2.90;;;18.60;92.90;;;;;;5069158;28;20483;-67
2022/06/02 08:27:25;;;;;;;2.80;1.63;;;18.70;92.80;;;;;;5069390;28;20900;-67
2022/06/02 08:30:08;;;;;;;4.30;2.70;;;18.90;93.10;;;;;;5068262;28;21023;-67
2022/06/02 08:32:52;;;;;;;3.63;2.53;;;19.10;91.80;;;;;;5069509;28;20825;-66
2022/06/02 08:35:24;;;;;;;3.90;2.00;;;19.10;91.40;;;;;;5068955;28;20458;-68
2022/06/02 08:38:10;;;;;;;3.00;2.20;;;19.20;92.70;;;;;;5069757;28;20458;-66
2022/06/02 08:44:31;;;;;;;3.10;2.30;;;19.30;91.40;;;;;;5062363;28;20427;-69
2022/06/02 08:47:38;;;;;;;2.80;2.17;;;19.40;90.60;;;;;;4992844;28;20469;-70
2022/06/02 08:50:30;;;;;;;3.33;2.10;;;19.30;90.60;;;;;;5058244;28;20462;-67
2022/06/02 08:53:33;;;;;;;4.13;2.13;;;19.10;89.70;;;;;;5060050;28;20457;-66
2022/06/02 08:56:32;;;;;;;3.80;2.23;;;19.00;90.30;;;;;;5057409;28;20508;-67
2022/06/02 08:59:29;;;;;;;3.40;2.20;;;19.10;92.10;;;;;;5060093;28;20443;-67
2022/06/02 09:02:20;;;;;;;2.83;1.97;;;19.10;90.50;;;;;;5057161;28;20601;-69
2022/06/02 09:05:23;;;;;;;5.17;1.93;;;19.20;91.00;;;;;;5060085;28;21025;-67
2022/06/02 09:08:11;;;;;;;3.70;2.23;;;19.50;91.80;;;;;;5065768;28;20803;-68
2022/06/02 09:11:16;;;;;;;3.70;2.20;;;19.90;92.80;;;;;;5068263;28;20810;-68
2022/06/02 09:14:14;;;;;;;3.90;2.07;;;20.30;91.60;;;;;;5050020;28;20830;-66
2022/06/02 09:16:56;;;;;;;3.60;2.37;;;20.40;89.70;;;;;;5049623;28;20450;-68
2022/06/02 09:19:52;;;;;;;4.77;2.50;;;20.30;90.00;;;;;;5066963;28;20428;-68
2022/06/02 09:22:45;;;;;;;5.57;2.40;;;20.40;90.10;;;;;;5065213;28;20451;-67
2022/06/02 09:25:30;;;;;;;3.60;2.13;;;20.50;90.10;;;;;;5057789;28;20938;-66
2022/06/02 09:28:27;;;;;;;5.10;2.73;;;20.80;90.50;;;;;;5064020;28;20463;-67
2022/06/02 09:31:08;;;;;;;4.20;2.40;;;21.30;90.40;;;;;;5056398;28;20460;-64
2022/06/02 09:34:02;;;;;;;4.80;2.30;;;21.80;90.00;;;;;;5059969;28;20439;-68
2022/06/02 09:37:02;;;;;;;2.80;2.40;;;22.10;87.30;;;;;;5059956;28;21001;-68
2022/06/02 09:39:49;;;;;;;2.80;1.97;;;22.30;83.80;;;;;;5046563;28;20452;-64
2022/06/02 09:42:34;;;;;;;3.13;1.73;;;22.60;83.90;;;;;;5065595;28;20443;-68
2022/06/02 09:45:16;;;;;;;3.40;1.93;;;22.60;82.90;;;;;;5065498;28;20475;-66
2022/06/02 09:48:05;;;;;;;5.67;3.30;;;22.80;83.80;;;;;;5054715;28;20520;-68
2022/06/02 09:50:48;;;;;;;3.27;1.90;;;22.70;81.60;;;;;;5060586;28;20468;-67
2022/06/02 09:53:33;;;;;;;2.93;2.30;;;22.40;80.60;;;;;;5072052;28;20945;-66
2022/06/02 09:56:19;;;;;;;2.97;2.00;;;22.40;82.90;;;;;;5069823;28;20441;-67
2022/06/02 09:59:11;;;;;;;3.17;1.70;;;23.40;83.00;;;;;;5068612;28;20439;-66
2022/06/02 10:01:54;;;;;;;6.93;2.30;;;24.40;75.10;;;;;;5072304;28;20524;-67
2022/06/02 10:04:53;;;;;;;3.30;1.93;;;24.50;75.20;;;;;;5071732;28;20821;-65
2022/06/02 10:07:49;;;;;;;2.77;1.70;;;25.60;76.30;;;;;;5050692;28;20907;-69
2022/06/02 10:10:47;;;;;;;3.53;2.10;;;26.00;72.20;;;;;;5062305;28;20466;-67
2022/06/02 10:13:44;;;;;;;4.40;1.67;;;26.20;70.50;;;;;;5063491;28;20543;-66
2022/06/02 10:16:44;;;;;;;4.23;1.90;;;26.50;68.50;;;;;;5063034;28;20447;-67
2022/06/02 10:19:36;;;;;;;3.60;1.80;;;27.20;65.60;;;;;;5063603;28;21086;-68
2022/06/02 10:22:09;;;;;;;2.80;1.80;;;27.90;65.20;;;;;;5064263;28;20463;-67
2022/06/02 10:24:52;;;;;;;2.43;1.80;;;28.00;66.40;;;;;;5071140;28;20586;-68
2022/06/02 10:27:48;;;;;;;2.30;1.77;;;28.10;64.90;;;;;;5067513;28;20442;-67
2022/06/02 10:30:58;;;;;;;3.57;1.80;;;28.50;65.10;;;;;;5061625;28;20470;-65
2022/06/02 10:33:59;;;;;;;2.10;1.20;;;28.70;61.80;;;;;;5073029;28;20867;-67
2022/06/02 10:37:06;;;;;;;3.60;1.73;;;28.50;60.10;;;;;;5070104;28;20439;-65
2022/06/02 10:40:09;;;;;;;3.23;2.33;;;28.30;59.80;;;;;;5009975;28;20554;-68
2022/06/02 10:43:00;;;;;;;3.83;1.63;;;27.70;59.80;;;;;;5001286;28;21010;-68
2022/06/02 10:46:07;;;;;;;4.23;1.93;;;28.20;60.30;;;;;;5051817;28;21012;-66
2022/06/02 10:49:00;;;;;;;2.87;1.60;;;27.30;58.90;;;;;;5052446;28;20443;-67
2022/06/02 10:52:02;;;;;;;3.13;1.63;;;26.60;61.80;;;;;;5068860;28;20471;-67
2022/06/02 10:55:19;;;;;;;3.63;1.90;;;27.20;66.10;;;;;;5050812;28;20530;-67
2022/06/02 10:58:15;;;;;;;2.60;1.70;;;26.90;59.90;;;;;;4988964;28;20547;-65
2022/06/02 11:01:16;;;;;;;2.67;1.67;;;26.70;61.00;;;;;;4985113;28;21064;-66
2022/06/02 11:04:19;;;;;;;3.37;2.00;;;27.20;60.70;;;;;;5070659;28;20451;-66
2022/06/02 11:07:23;;;;;;;2.10;1.43;;;26.60;61.10;;;;;;5045578;28;20558;-68
2022/06/02 11:10:31;;;;;;;3.17;1.90;;;27.10;63.70;;;;;;5066681;28;20446;-67
2022/06/02 11:13:36;;;;;;;3.50;1.50;;;26.90;59.70;;;;;;5069096;28;20443;-65
2022/06/02 11:16:58;;;;;;;3.03;1.60;;;27.10;64.00;;;;;;5071705;28;20940;-66
2022/06/02 11:20:03;;;;;;;2.33;1.63;;;28.40;60.50;;;;;;5069204;28;20451;-66
2022/06/02 11:22:58;;;;;;;3.40;1.90;;;28.90;57.60;;;;;;5066448;28;20439;-66
2022/06/02 11:25:49;;;;;;;4.63;1.93;;;29.60;60.40;;;;;;5069621;28;20479;-66
2022/06/02 11:28:42;;;;;;;3.47;1.70;;;29.90;59.80;;;;;;5071823;28;20459;-68
2022/06/02 11:31:38;;;;;;;7.00;2.87;;;30.30;56.00;;;;;;5068722;28;20469;-67
2022/06/02 11:34:45;;;;;;;2.33;1.63;;;30.70;57.60;;;;;;5062288;28;20463;-68
2022/06/02 11:37:41;;;;;;;3.73;1.70;;;30.20;56.90;;;;;;5070037;28;20451;-67
2022/06/02 11:40:42;;;;;;;2.73;1.53;;;30.60;55.30;;;;;;5069463;28;20486;-66
2022/06/02 11:43:15;;;;;;;2.60;1.53;;;30.30;53.80;;;;;;5070321;28;20448;-67
2022/06/02 11:46:11;;;;;;;2.57;1.47;;;29.80;56.90;;;;;;5069910;28;20491;-66
2022/06/02 11:49:06;;;;;;;3.50;1.70;;;30.00;57.50;;;;;;5064933;28;21118;-66
2022/06/02 11:51:55;;;;;;;3.30;1.57;;;30.50;57.00;;;;;;5068642;28;20457;-67
2022/06/02 11:54:53;;;;;;;4.03;1.57;;;30.30;55.50;;;;;;5070607;28;20477;-65
2022/06/02 11:57:49;;;;;;;3.20;1.77;;;28.90;54.80;;;;;;5069916;28;20440;-66
2022/06/02 12:01:24;;;;;;;2.20;1.37;;;28.40;58.40;;;;;;5069572;28;20455;-66
2022/06/02 12:04:29;;;;;;;4.37;1.83;;;28.70;58.40;;;;;;4929415;29;20497;-66
2022/06/02 12:07:37;;;;;;;3.67;2.40;;;29.10;57.10;;;;;;4929669;29;20512;-66
2022/06/02 12:10:38;;;;;;;7.83;2.20;;;28.60;56.20;;;;;;5068929;28;20454;-64
2022/06/02 12:13:22;;;;;;;3.00;1.67;;;27.80;57.60;;;;;;5047164;28;20435;-66
2022/06/02 12:16:16;;;;;;;4.30;2.03;;;27.90;58.20;;;;;;5063083;28;20445;-67
2022/06/02 12:18:59;;;;;;;2.60;1.70;;;27.70;62.40;;;;;;5066558;28;20453;-66
2022/06/02 12:21:40;;;;;;;2.83;1.60;;;27.20;58.70;;;;;;5067347;28;20470;-66
2022/06/02 12:24:31;;;;;;;3.90;1.87;;;27.10;61.00;;;;;;5070754;28;20455;-67
2022/06/02 12:27:20;;;;;;;6.93;1.97;;;27.50;58.80;;;;;;5062551;28;20593;-67
2022/06/02 12:30:04;;;;;;;3.87;1.80;;;27.50;58.00;;;;;;5065216;28;20435;-64
2022/06/02 12:32:59;;;;;;;3.60;1.73;;;27.40;61.60;;;;;;5070153;28;20537;-67
2022/06/02 12:35:49;;;;;;;2.50;1.80;;;27.90;61.50;;;;;;5067933;28;20804;-66
2022/06/02 12:38:46;;;;;;;2.90;1.90;;;28.40;57.10;;;;;;5057235;28;20462;-67
2022/06/02 12:41:27;;;;;;;4.10;2.30;;;27.50;57.40;;;;;;5055673;28;20566;-66
2022/06/02 12:44:15;;;;;;;2.70;1.97;;;27.10;58.00;;;;;;5061862;28;20454;-66
2022/06/02 12:47:02;;;;;;;2.97;1.97;;;26.80;63.30;;;;;;5064208;28;20491;-66
2022/06/02 12:50:09;;;;;;;5.70;2.17;;;27.30;63.90;;;;;;5067770;28;20445;-66
2022/06/02 12:53:01;;;;;;;2.50;1.67;;;27.20;58.30;;;;;;5066831;28;20451;-67
2022/06/02 12:55:54;;;;;;;3.80;2.10;;;26.20;60.40;;;;;;5067141;28;20807;-68
2022/06/02 12:58:53;;;;;;;3.03;2.07;;;26.20;63.70;;;;;;5053058;28;21017;-67
2022/06/02 13:02:00;;;;;;;5.53;2.17;;;26.90;62.10;;;;;;5055544;28;20582;-66
2022/06/02 13:05:25;;;;;;;3.37;2.03;;;26.90;60.00;;;;;;5068402;28;20467;-68
2022/06/02 13:08:28;;;;;;;5.40;1.83;;;26.70;60.40;;;;;;5067137;28;21009;-68
2022/06/02 13:11:25;;;;;;;2.60;1.77;;;26.40;60.60;;;;;;5065753;28;20471;-65
2022/06/02 13:14:27;;;;;;;4.83;2.47;;;26.80;60.50;;;;;;5061294;28;20495;-66
2022/06/02 13:17:32;;;;;;;7.30;1.83;;;27.60;59.50;;;;;;5057584;28;20518;-66
2022/06/02 13:20:27;;;;;;;3.73;1.73;;;27.80;58.40;;;;;;5065581;28;20526;-67
2022/06/02 13:23:29;;;;;;;4.53;2.07;;;28.30;58.40;;;;;;5064732;28;20558;-65
2022/06/02 13:26:21;;;;;;;2.83;1.90;;;28.70;56.90;;;;;;5065219;28;20478;-66
2022/06/02 13:29:32;;;;;;;3.43;2.13;;;28.30;57.60;;;;;;5069566;28;20514;-67
2022/06/02 13:32:15;;;;;;;4.60;2.20;;;27.20;58.30;;;;;;5068354;28;20467;-68
2022/06/02 13:35:25;;;;;;;3.37;2.10;;;26.80;60.80;;;;;;5064088;28;20439;-68
2022/06/02 13:38:30;;;;;;;5.07;2.37;;;26.40;60.90;;;;;;5004883;28;20623;-69
2022/06/02 13:41:21;;;;;;;3.50;1.90;;;26.00;61.20;;;;;;5046441;28;20997;-69
2022/06/02 13:43:56;;;;;;;2.50;2.10;;;25.70;62.40;;;;;;5051613;28;20450;-65
2022/06/02 13:47:04;;;;;;;2.50;1.90;;;25.90;63.50;;;;;;5067535;28;20482;-67
2022/06/02 13:50:08;;;;;;;4.03;1.80;;;26.00;64.30;;;;;;5016108;28;20452;-67
2022/06/02 13:53:13;;;;;;;3.23;2.40;;;26.20;63.70;;;;;;5067579;28;20434;-67
2022/06/02 13:59:27;;;;;;;2.40;1.60;;;26.40;62.70;;;;;;5069043;28;20433;-66
2022/06/02 14:02:38;;;;;;;2.83;1.53;;;27.10;61.10;;;;;;5057863;28;20487;-66
2022/06/02 14:05:22;;;;;;;3.37;2.00;;;27.50;60.10;;;;;;5068593;28;20475;-67
2022/06/02 14:08:33;;;;;;;7.63;2.37;;;27.20;59.70;;;;;;5065692;28;20447;-64
2022/06/02 14:11:13;;;;;;;2.70;2.10;;;27.00;59.70;;;;;;5043867;28;20467;-68
2022/06/02 14:14:08;;;;;;;2.50;1.97;;;26.60;59.90;;;;;;5068486;28;20518;-67
2022/06/02 14:16:45;;;;;;;3.30;1.90;;;26.50;61.20;;;;;;5067824;28;20450;-69
2022/06/02 14:19:32;;;;;;;4.97;2.00;;;26.90;62.40;;;;;;5069202;28;20458;-66
2022/06/02 14:22:10;;;;;;;3.20;1.90;;;27.80;61.10;;;;;;5054829;28;20548;-64
2022/06/02 14:24:47;;;;;;;3.60;2.07;;;28.70;58.60;;;;;;5067659;28;20469;-66
2022/06/02 14:27:22;;;;;;;4.60;2.00;;;28.60;57.80;;;;;;5050487;28;20489;-66
2022/06/02 14:30:00;;;;;;;4.17;1.70;;;28.50;58.90;;;;;;5066903;28;20450;-68
2022/06/02 14:32:35;;;;;;;4.50;1.87;;;27.50;58.70;;;;;;5065022;28;20454;-69
2022/06/02 14:35:17;;;;;;;5.17;2.20;;;26.80;59.40;;;;;;5064294;28;20952;-68
2022/06/02 14:37:50;;;;;;;6.23;2.43;;;26.30;61.90;;;;;;5061864;28;20541;-66
2022/06/02 14:40:23;;;;;;;2.60;1.70;;;26.10;62.60;;;;;;5066020;28;20758;-65